sensor_id;sensor_type;location;lat;lon;timestamp;P1;P2;P0
76238;PMS7003;65043;48.392;-4.472;2023-11-19T00:02:25;17.75;11.25;4.50
76238;PMS7003;65043;48.392;-4.472;2023-11-19T00:04:50;14.25;7.75;4.00
76238;PMS7003;65043;48.392;-4.472;2023-11-19T00:07:16;17.25;11.00;5.00
76238;PMS7003;65043;48.392;-4.472;2023-11-19T00:09:41;18.25;10.00;4.25
76238;PMS7003;65043;48.392;-4.472;2023-11-19T00:12:08;15.00;7.75;3.75
76238;PMS7003;65043;48.392;-4.472;2023-11-19T00:14:34;14.50;9.00;4.00
76238;PMS7003;65043;48.392;-4.472;2023-11-19T00:16:59;16.25;9.25;3.00
76238;PMS7003;65043;48.392;-4.472;2023-11-19T00:19:28;13.75;9.00;4.00
76238;PMS7003;65043;48.392;-4.472;2023-11-19T00:21:53;14.50;10.75;3.00
76238;PMS7003;65043;48.392;-4.472;2023-11-19T00:24:19;12.00;8.50;3.00
76238;PMS7003;65043;48.392;-4.472;2023-11-19T00:26:45;18.25;6.00;4.00
76238;PMS7003;65043;48.392;-4.472;2023-11-19T00:29:11;13.00;9.75;4.50
76238;PMS7003;65043;48.392;-4.472;2023-11-19T00:31:38;11.75;8.25;4.00
76238;PMS7003;65043;48.392;-4.472;2023-11-19T00:34:03;12.25;6.75;3.25
76238;PMS7003;65043;48.392;-4.472;2023-11-19T00:36:31;16.25;12.00;6.00
76238;PMS7003;65043;48.392;-4.472;2023-11-19T00:38:57;16.00;8.75;4.00
76238;PMS7003;65043;48.392;-4.472;2023-11-19T00:41:23;16.00;9.50;4.00
76238;PMS7003;65043;48.392;-4.472;2023-11-19T00:43:48;18.00;11.50;4.00
76238;PMS7003;65043;48.392;-4.472;2023-11-19T00:46:14;16.50;12.25;4.50
76238;PMS7003;65043;48.392;-4.472;2023-11-19T00:48:40;13.00;9.50;4.50
76238;PMS7003;65043;48.392;-4.472;2023-11-19T00:51:05;16.75;9.00;4.50
76238;PMS7003;65043;48.392;-4.472;2023-11-19T00:53:31;10.25;8.25;4.00
76238;PMS7003;65043;48.392;-4.472;2023-11-19T00:55:59;12.00;8.75;4.00
76238;PMS7003;65043;48.392;-4.472;2023-11-19T00:58:25;20.00;11.50;3.75
76238;PMS7003;65043;48.392;-4.472;2023-11-19T01:00:51;14.75;11.00;5.25
76238;PMS7003;65043;48.392;-4.472;2023-11-19T01:03:16;18.50;9.25;2.50
76238;PMS7003;65043;48.392;-4.472;2023-11-19T01:05:42;19.50;14.25;3.50
76238;PMS7003;65043;48.392;-4.472;2023-11-19T01:08:08;13.50;9.75;3.75
76238;PMS7003;65043;48.392;-4.472;2023-11-19T01:10:34;15.75;9.75;3.25
76238;PMS7003;65043;48.392;-4.472;2023-11-19T01:13:01;23.00;17.50;6.50
76238;PMS7003;65043;48.392;-4.472;2023-11-19T01:15:28;17.50;11.25;4.75
76238;PMS7003;65043;48.392;-4.472;2023-11-19T01:17:54;12.00;6.75;3.00
76238;PMS7003;65043;48.392;-4.472;2023-11-19T01:20:19;14.75;7.75;3.25
76238;PMS7003;65043;48.392;-4.472;2023-11-19T01:22:45;14.00;7.50;3.50
76238;PMS7003;65043;48.392;-4.472;2023-11-19T01:25:10;17.25;10.25;4.00
76238;PMS7003;65043;48.392;-4.472;2023-11-19T01:27:36;19.75;11.50;4.50
76238;PMS7003;65043;48.392;-4.472;2023-11-19T01:30:02;16.25;11.75;4.50
76238;PMS7003;65043;48.392;-4.472;2023-11-19T01:32:31;14.00;10.00;4.75
76238;PMS7003;65043;48.392;-4.472;2023-11-19T01:34:57;15.00;10.00;3.00
76238;PMS7003;65043;48.392;-4.472;2023-11-19T01:37:23;16.00;9.25;4.75
76238;PMS7003;65043;48.392;-4.472;2023-11-19T01:39:48;17.00;9.50;4.25
76238;PMS7003;65043;48.392;-4.472;2023-11-19T01:42:15;20.25;9.00;4.00
76238;PMS7003;65043;48.392;-4.472;2023-11-19T01:44:53;18.50;9.50;3.75
76238;PMS7003;65043;48.392;-4.472;2023-11-19T01:47:22;16.50;10.75;4.75
76238;PMS7003;65043;48.392;-4.472;2023-11-19T01:49:48;13.25;8.75;3.00
76238;PMS7003;65043;48.392;-4.472;2023-11-19T01:52:13;13.00;8.50;4.00
76238;PMS7003;65043;48.392;-4.472;2023-11-19T01:54:39;12.25;7.25;3.75
76238;PMS7003;65043;48.392;-4.472;2023-11-19T01:57:04;14.75;10.25;4.00
76238;PMS7003;65043;48.392;-4.472;2023-11-19T01:59:32;14.75;9.00;4.00
76238;PMS7003;65043;48.392;-4.472;2023-11-19T02:01:58;13.50;10.50;4.00
76238;PMS7003;65043;48.392;-4.472;2023-11-19T02:04:23;15.50;9.00;3.25
76238;PMS7003;65043;48.392;-4.472;2023-11-19T02:06:49;12.00;8.00;3.75
76238;PMS7003;65043;48.392;-4.472;2023-11-19T02:09:19;15.75;9.75;3.00
76238;PMS7003;65043;48.392;-4.472;2023-11-19T02:11:45;12.25;8.00;3.00
76238;PMS7003;65043;48.392;-4.472;2023-11-19T02:14:14;13.00;5.75;2.75
76238;PMS7003;65043;48.392;-4.472;2023-11-19T02:16:40;18.00;10.25;3.00
76238;PMS7003;65043;48.392;-4.472;2023-11-19T02:19:06;12.75;8.25;3.00
76238;PMS7003;65043;48.392;-4.472;2023-11-19T02:21:33;19.00;9.25;2.50
76238;PMS7003;65043;48.392;-4.472;2023-11-19T02:23:58;14.25;7.25;3.50
76238;PMS7003;65043;48.392;-4.472;2023-11-19T02:28:58;19.50;9.50;5.00
76238;PMS7003;65043;48.392;-4.472;2023-11-19T02:31:23;11.75;7.75;2.75
76238;PMS7003;65043;48.392;-4.472;2023-11-19T02:33:49;13.75;9.75;3.75
76238;PMS7003;65043;48.392;-4.472;2023-11-19T02:36:15;16.25;9.25;3.00
76238;PMS7003;65043;48.392;-4.472;2023-11-19T02:38:42;13.00;6.50;3.00
76238;PMS7003;65043;48.392;-4.472;2023-11-19T02:41:09;14.00;7.50;3.00
76238;PMS7003;65043;48.392;-4.472;2023-11-19T02:43:35;13.75;11.00;3.00
76238;PMS7003;65043;48.392;-4.472;2023-11-19T02:46:02;11.00;5.75;2.00
76238;PMS7003;65043;48.392;-4.472;2023-11-19T02:48:32;12.25;9.00;3.75
76238;PMS7003;65043;48.392;-4.472;2023-11-19T02:51:00;19.25;12.25;3.50
76238;PMS7003;65043;48.392;-4.472;2023-11-19T02:53:26;11.25;6.00;3.00
76238;PMS7003;65043;48.392;-4.472;2023-11-19T02:55:53;19.25;11.00;4.50
76238;PMS7003;65043;48.392;-4.472;2023-11-19T02:58:26;13.25;9.00;4.00
76238;PMS7003;65043;48.392;-4.472;2023-11-19T03:00:54;12.00;7.50;3.75
76238;PMS7003;65043;48.392;-4.472;2023-11-19T03:03:24;9.25;7.50;4.00
76238;PMS7003;65043;48.392;-4.472;2023-11-19T03:05:53;13.25;6.50;3.25
76238;PMS7003;65043;48.392;-4.472;2023-11-19T03:08:20;16.75;11.00;4.50
76238;PMS7003;65043;48.392;-4.472;2023-11-19T03:10:46;14.75;7.25;3.00
76238;PMS7003;65043;48.392;-4.472;2023-11-19T03:13:14;16.50;7.00;3.00
76238;PMS7003;65043;48.392;-4.472;2023-11-19T03:15:40;13.00;9.50;4.00
76238;PMS7003;65043;48.392;-4.472;2023-11-19T03:18:06;11.50;8.75;3.75
76238;PMS7003;65043;48.392;-4.472;2023-11-19T03:20:34;10.75;7.75;3.25
76238;PMS7003;65043;48.392;-4.472;2023-11-19T03:23:00;18.25;8.50;3.00
76238;PMS7003;65043;48.392;-4.472;2023-11-19T03:25:28;16.00;7.00;2.75
76238;PMS7003;65043;48.392;-4.472;2023-11-19T03:27:58;12.50;4.25;2.00
76238;PMS7003;65043;48.392;-4.472;2023-11-19T03:30:27;9.00;5.50;3.25
76238;PMS7003;65043;48.392;-4.472;2023-11-19T03:32:53;13.50;7.75;3.00
76238;PMS7003;65043;48.392;-4.472;2023-11-19T03:35:19;12.75;9.50;3.00
76238;PMS7003;65043;48.392;-4.472;2023-11-19T03:37:45;18.25;8.25;2.75
76238;PMS7003;65043;48.392;-4.472;2023-11-19T03:40:10;9.00;7.00;3.00
76238;PMS7003;65043;48.392;-4.472;2023-11-19T03:42:36;14.00;6.25;3.00
76238;PMS7003;65043;48.392;-4.472;2023-11-19T03:45:01;10.50;7.25;2.25
76238;PMS7003;65043;48.392;-4.472;2023-11-19T03:47:29;9.75;7.00;3.00
76238;PMS7003;65043;48.392;-4.472;2023-11-19T03:49:54;12.50;7.00;2.00
76238;PMS7003;65043;48.392;-4.472;2023-11-19T03:52:20;11.50;5.50;3.00
76238;PMS7003;65043;48.392;-4.472;2023-11-19T03:54:45;12.00;8.00;3.75
76238;PMS7003;65043;48.392;-4.472;2023-11-19T03:57:11;10.25;6.25;2.00
76238;PMS7003;65043;48.392;-4.472;2023-11-19T03:59:40;9.25;8.25;3.25
76238;PMS7003;65043;48.392;-4.472;2023-11-19T04:02:06;12.75;7.00;3.75
76238;PMS7003;65043;48.392;-4.472;2023-11-19T04:04:32;8.75;6.25;3.00
76238;PMS7003;65043;48.392;-4.472;2023-11-19T04:07:00;16.33;9.00;2.00
76238;PMS7003;65043;48.392;-4.472;2023-11-19T04:09:28;11.00;5.50;2.00
76238;PMS7003;65043;48.392;-4.472;2023-11-19T04:11:55;9.50;6.00;3.00
76238;PMS7003;65043;48.392;-4.472;2023-11-19T04:14:20;9.25;6.25;3.00
76238;PMS7003;65043;48.392;-4.472;2023-11-19T04:16:46;11.50;6.00;3.00
76238;PMS7003;65043;48.392;-4.472;2023-11-19T04:19:11;10.50;7.50;3.00
76238;PMS7003;65043;48.392;-4.472;2023-11-19T04:21:39;13.25;7.25;3.00
76238;PMS7003;65043;48.392;-4.472;2023-11-19T04:24:06;12.50;7.00;3.25
76238;PMS7003;65043;48.392;-4.472;2023-11-19T04:26:33;16.75;6.75;3.00
76238;PMS7003;65043;48.392;-4.472;2023-11-19T04:28:59;13.25;8.50;2.50
76238;PMS7003;65043;48.392;-4.472;2023-11-19T04:31:29;19.00;8.50;3.50
76238;PMS7003;65043;48.392;-4.472;2023-11-19T04:33:56;14.75;7.00;3.75
76238;PMS7003;65043;48.392;-4.472;2023-11-19T04:36:22;18.25;8.25;3.00
76238;PMS7003;65043;48.392;-4.472;2023-11-19T04:38:49;12.25;9.00;3.50
76238;PMS7003;65043;48.392;-4.472;2023-11-19T04:41:15;10.00;7.25;2.75
76238;PMS7003;65043;48.392;-4.472;2023-11-19T04:43:41;5.25;5.00;2.00
76238;PMS7003;65043;48.392;-4.472;2023-11-19T04:46:06;9.25;8.25;3.75
76238;PMS7003;65043;48.392;-4.472;2023-11-19T04:48:32;9.00;5.50;2.00
76238;PMS7003;65043;48.392;-4.472;2023-11-19T04:50:57;11.00;4.25;2.00
76238;PMS7003;65043;48.392;-4.472;2023-11-19T04:53:23;15.00;5.25;2.50
76238;PMS7003;65043;48.392;-4.472;2023-11-19T04:55:48;11.25;6.00;2.00
76238;PMS7003;65043;48.392;-4.472;2023-11-19T04:58:14;9.75;7.25;2.50
76238;PMS7003;65043;48.392;-4.472;2023-11-19T05:00:39;15.75;6.00;2.00
76238;PMS7003;65043;48.392;-4.472;2023-11-19T05:03:04;12.25;8.25;3.00
76238;PMS7003;65043;48.392;-4.472;2023-11-19T05:05:30;12.00;4.00;2.00
76238;PMS7003;65043;48.392;-4.472;2023-11-19T05:07:56;12.50;8.25;3.00
76238;PMS7003;65043;48.392;-4.472;2023-11-19T05:10:22;14.25;5.00;2.00
76238;PMS7003;65043;48.392;-4.472;2023-11-19T05:12:47;8.50;4.25;2.00
76238;PMS7003;65043;48.392;-4.472;2023-11-19T05:15:12;13.75;9.00;3.25
76238;PMS7003;65043;48.392;-4.472;2023-11-19T05:17:39;11.75;5.00;2.50
76238;PMS7003;65043;48.392;-4.472;2023-11-19T05:20:05;10.00;5.75;2.00
76238;PMS7003;65043;48.392;-4.472;2023-11-19T05:22:38;12.75;8.50;2.00
76238;PMS7003;65043;48.392;-4.472;2023-11-19T05:25:07;12.25;9.75;2.50
76238;PMS7003;65043;48.392;-4.472;2023-11-19T05:27:34;14.75;6.00;2.00
76238;PMS7003;65043;48.392;-4.472;2023-11-19T05:30:01;15.25;7.25;3.00
76238;PMS7003;65043;48.392;-4.472;2023-11-19T05:32:27;7.50;6.75;3.00
76238;PMS7003;65043;48.392;-4.472;2023-11-19T05:34:53;10.75;6.25;3.50
76238;PMS7003;65043;48.392;-4.472;2023-11-19T05:37:19;10.50;3.50;2.00
76238;PMS7003;65043;48.392;-4.472;2023-11-19T05:39:45;10.75;8.75;4.00
76238;PMS7003;65043;48.392;-4.472;2023-11-19T05:42:10;5.50;3.00;2.00
76238;PMS7003;65043;48.392;-4.472;2023-11-19T05:44:36;10.25;4.75;3.00
76238;PMS7003;65043;48.392;-4.472;2023-11-19T05:47:02;12.50;4.00;2.00
76238;PMS7003;65043;48.392;-4.472;2023-11-19T05:49:29;9.50;6.50;2.25
76238;PMS7003;65043;48.392;-4.472;2023-11-19T05:51:54;5.50;4.50;2.00
76238;PMS7003;65043;48.392;-4.472;2023-11-19T05:54:21;9.50;5.75;2.00
76238;PMS7003;65043;48.392;-4.472;2023-11-19T05:56:49;7.50;5.75;2.75
76238;PMS7003;65043;48.392;-4.472;2023-11-19T05:59:15;13.25;6.75;1.75
76238;PMS7003;65043;48.392;-4.472;2023-11-19T06:01:43;6.75;5.50;3.00
76238;PMS7003;65043;48.392;-4.472;2023-11-19T06:04:09;12.00;2.50;2.00
76238;PMS7003;65043;48.392;-4.472;2023-11-19T06:06:35;9.00;6.50;2.75
76238;PMS7003;65043;48.392;-4.472;2023-11-19T06:09:01;11.00;8.00;2.00
76238;PMS7003;65043;48.392;-4.472;2023-11-19T06:11:27;11.00;6.50;2.25
76238;PMS7003;65043;48.392;-4.472;2023-11-19T06:13:53;9.25;6.50;1.25
76238;PMS7003;65043;48.392;-4.472;2023-11-19T06:16:18;9.75;7.25;2.75
76238;PMS7003;65043;48.392;-4.472;2023-11-19T06:18:44;6.00;5.75;2.75
76238;PMS7003;65043;48.392;-4.472;2023-11-19T06:21:10;16.75;8.75;2.75
76238;PMS7003;65043;48.392;-4.472;2023-11-19T06:23:36;12.25;8.25;3.50
76238;PMS7003;65043;48.392;-4.472;2023-11-19T06:26:02;16.50;7.75;3.25
76238;PMS7003;65043;48.392;-4.472;2023-11-19T06:28:27;7.75;4.00;2.00
76238;PMS7003;65043;48.392;-4.472;2023-11-19T06:30:53;13.00;5.25;2.75
76238;PMS7003;65043;48.392;-4.472;2023-11-19T06:33:18;12.75;7.50;2.75
76238;PMS7003;65043;48.392;-4.472;2023-11-19T06:35:44;13.75;7.75;2.50
76238;PMS7003;65043;48.392;-4.472;2023-11-19T06:38:10;13.00;6.75;2.50
76238;PMS7003;65043;48.392;-4.472;2023-11-19T06:40:35;9.25;8.25;2.50
76238;PMS7003;65043;48.392;-4.472;2023-11-19T06:43:01;9.50;5.00;2.00
76238;PMS7003;65043;48.392;-4.472;2023-11-19T06:45:33;14.00;7.75;3.00
76238;PMS7003;65043;48.392;-4.472;2023-11-19T06:48:02;14.25;7.25;3.00
76238;PMS7003;65043;48.392;-4.472;2023-11-19T06:50:31;14.00;8.25;2.00
76238;PMS7003;65043;48.392;-4.472;2023-11-19T06:52:57;12.75;7.00;4.00
76238;PMS7003;65043;48.392;-4.472;2023-11-19T06:55:23;8.00;5.00;2.00
76238;PMS7003;65043;48.392;-4.472;2023-11-19T06:57:48;11.50;6.75;3.00
76238;PMS7003;65043;48.392;-4.472;2023-11-19T07:00:14;12.00;6.50;3.50
76238;PMS7003;65043;48.392;-4.472;2023-11-19T07:02:39;13.50;6.75;2.00
76238;PMS7003;65043;48.392;-4.472;2023-11-19T07:05:05;13.75;8.25;3.00
76238;PMS7003;65043;48.392;-4.472;2023-11-19T07:07:33;8.00;7.75;2.00
76238;PMS7003;65043;48.392;-4.472;2023-11-19T07:09:59;8.25;6.75;2.75
76238;PMS7003;65043;48.392;-4.472;2023-11-19T07:12:24;11.25;6.00;2.00
76238;PMS7003;65043;48.392;-4.472;2023-11-19T07:14:51;9.75;9.50;4.25
76238;PMS7003;65043;48.392;-4.472;2023-11-19T07:17:21;10.00;5.00;3.00
76238;PMS7003;65043;48.392;-4.472;2023-11-19T07:19:46;13.25;8.75;3.25
76238;PMS7003;65043;48.392;-4.472;2023-11-19T07:22:16;10.00;7.75;2.75
76238;PMS7003;65043;48.392;-4.472;2023-11-19T07:24:42;10.25;8.00;3.00
76238;PMS7003;65043;48.392;-4.472;2023-11-19T07:27:08;12.75;7.75;3.00
76238;PMS7003;65043;48.392;-4.472;2023-11-19T07:29:34;14.25;6.50;2.00
76238;PMS7003;65043;48.392;-4.472;2023-11-19T07:32:02;8.50;4.50;2.00
76238;PMS7003;65043;48.392;-4.472;2023-11-19T07:34:28;10.75;6.25;2.00
76238;PMS7003;65043;48.392;-4.472;2023-11-19T07:36:54;11.25;8.00;2.50
76238;PMS7003;65043;48.392;-4.472;2023-11-19T07:39:22;12.25;6.75;3.00
76238;PMS7003;65043;48.392;-4.472;2023-11-19T07:41:48;12.25;6.25;3.50
76238;PMS7003;65043;48.392;-4.472;2023-11-19T07:44:14;11.50;7.25;3.00
76238;PMS7003;65043;48.392;-4.472;2023-11-19T07:46:39;15.50;9.00;3.25
76238;PMS7003;65043;48.392;-4.472;2023-11-19T07:49:07;16.00;9.00;3.75
76238;PMS7003;65043;48.392;-4.472;2023-11-19T07:51:32;6.25;4.50;3.00
76238;PMS7003;65043;48.392;-4.472;2023-11-19T07:53:58;9.50;7.50;3.00
76238;PMS7003;65043;48.392;-4.472;2023-11-19T07:56:23;14.75;5.00;2.00
76238;PMS7003;65043;48.392;-4.472;2023-11-19T07:58:49;9.00;6.00;2.00
76238;PMS7003;65043;48.392;-4.472;2023-11-19T08:01:15;11.25;7.75;2.50
76238;PMS7003;65043;48.392;-4.472;2023-11-19T08:03:41;23.25;18.75;11.75
76238;PMS7003;65043;48.392;-4.472;2023-11-19T08:06:06;54.25;40.50;22.50
76238;PMS7003;65043;48.392;-4.472;2023-11-19T08:08:32;134.50;119.00;60.75
76238;PMS7003;65043;48.392;-4.472;2023-11-19T08:10:58;63.75;49.75;32.00
76238;PMS7003;65043;48.392;-4.472;2023-11-19T08:13:24;48.50;35.50;20.00
76238;PMS7003;65043;48.392;-4.472;2023-11-19T08:15:50;20.50;11.00;7.00
76238;PMS7003;65043;48.392;-4.472;2023-11-19T08:18:16;14.50;12.00;4.50
76238;PMS7003;65043;48.392;-4.472;2023-11-19T08:20:43;14.25;7.75;4.00
76238;PMS7003;65043;48.392;-4.472;2023-11-19T08:23:10;8.75;7.00;3.00
76238;PMS7003;65043;48.392;-4.472;2023-11-19T08:25:38;9.25;8.00;3.00
76238;PMS7003;65043;48.392;-4.472;2023-11-19T08:28:04;10.00;6.75;3.00
76238;PMS7003;65043;48.392;-4.472;2023-11-19T08:30:29;10.00;7.00;4.25
76238;PMS7003;65043;48.392;-4.472;2023-11-19T08:32:55;11.50;6.75;3.00
76238;PMS7003;65043;48.392;-4.472;2023-11-19T08:35:21;12.00;5.25;3.00
76238;PMS7003;65043;48.392;-4.472;2023-11-19T08:37:47;13.25;5.25;2.00
76238;PMS7003;65043;48.392;-4.472;2023-11-19T08:40:12;8.50;6.00;3.00
76238;PMS7003;65043;48.392;-4.472;2023-11-19T08:42:40;8.75;6.50;2.75
76238;PMS7003;65043;48.392;-4.472;2023-11-19T08:45:06;10.25;5.25;2.75
76238;PMS7003;65043;48.392;-4.472;2023-11-19T08:47:32;9.25;4.25;2.00
76238;PMS7003;65043;48.392;-4.472;2023-11-19T08:49:57;8.75;8.00;2.00
76238;PMS7003;65043;48.392;-4.472;2023-11-19T08:52:23;4.75;4.50;2.50
76238;PMS7003;65043;48.392;-4.472;2023-11-19T08:54:48;14.25;10.00;4.00
76238;PMS7003;65043;48.392;-4.472;2023-11-19T08:57:14;14.50;9.75;3.00
76238;PMS7003;65043;48.392;-4.472;2023-11-19T08:59:39;10.75;7.75;3.00
76238;PMS7003;65043;48.392;-4.472;2023-11-19T09:02:05;11.50;8.00;3.00
76238;PMS7003;65043;48.392;-4.472;2023-11-19T09:04:32;9.25;7.00;2.50
76238;PMS7003;65043;48.392;-4.472;2023-11-19T09:06:57;10.25;4.00;2.00
76238;PMS7003;65043;48.392;-4.472;2023-11-19T09:09:23;12.75;5.50;2.25
76238;PMS7003;65043;48.392;-4.472;2023-11-19T09:11:49;12.75;6.25;3.00
76238;PMS7003;65043;48.392;-4.472;2023-11-19T09:14:14;6.50;5.00;3.00
76238;PMS7003;65043;48.392;-4.472;2023-11-19T09:16:40;14.50;4.00;2.50
76238;PMS7003;65043;48.392;-4.472;2023-11-19T09:19:06;10.00;4.75;2.50
76238;PMS7003;65043;48.392;-4.472;2023-11-19T09:21:31;11.00;5.25;2.00
76238;PMS7003;65043;48.392;-4.472;2023-11-19T09:23:59;5.50;5.00;2.25
76238;PMS7003;65043;48.392;-4.472;2023-11-19T09:26:24;8.75;6.00;2.25
76238;PMS7003;65043;48.392;-4.472;2023-11-19T09:28:50;8.75;5.00;2.00
76238;PMS7003;65043;48.392;-4.472;2023-11-19T09:31:16;8.00;5.00;2.00
76238;PMS7003;65043;48.392;-4.472;2023-11-19T09:33:42;7.00;4.75;3.00
76238;PMS7003;65043;48.392;-4.472;2023-11-19T09:42:52;10.00;6.00;2.00
76238;PMS7003;65043;48.392;-4.472;2023-11-19T09:45:17;12.75;4.00;1.75
76238;PMS7003;65043;48.392;-4.472;2023-11-19T09:47:46;6.75;5.75;3.00
76238;PMS7003;65043;48.392;-4.472;2023-11-19T09:50:14;11.25;4.00;1.25
76238;PMS7003;65043;48.392;-4.472;2023-11-19T09:52:47;6.00;5.00;2.00
76238;PMS7003;65043;48.392;-4.472;2023-11-19T09:55:20;9.50;6.00;1.25
76238;PMS7003;65043;48.392;-4.472;2023-11-19T09:57:46;6.25;4.00;1.25
76238;PMS7003;65043;48.392;-4.472;2023-11-19T10:00:13;8.75;6.75;3.00
76238;PMS7003;65043;48.392;-4.472;2023-11-19T10:02:40;10.75;4.50;1.25
76238;PMS7003;65043;48.392;-4.472;2023-11-19T10:05:06;7.25;4.50;2.00
76238;PMS7003;65043;48.392;-4.472;2023-11-19T10:07:33;7.75;4.75;2.00
76238;PMS7003;65043;48.392;-4.472;2023-11-19T10:09:59;12.00;5.00;2.00
76238;PMS7003;65043;48.392;-4.472;2023-11-19T10:12:26;10.00;4.50;2.00
76238;PMS7003;65043;48.392;-4.472;2023-11-19T10:14:54;9.75;6.00;2.00
76238;PMS7003;65043;48.392;-4.472;2023-11-19T10:17:28;5.00;4.25;1.25
76238;PMS7003;65043;48.392;-4.472;2023-11-19T10:19:56;7.25;4.50;2.00
76238;PMS7003;65043;48.392;-4.472;2023-11-19T10:22:24;9.50;5.50;2.00
76238;PMS7003;65043;48.392;-4.472;2023-11-19T10:24:51;9.00;4.75;2.00
76238;PMS7003;65043;48.392;-4.472;2023-11-19T10:27:17;13.75;5.00;2.00
76238;PMS7003;65043;48.392;-4.472;2023-11-19T10:29:45;10.75;4.00;1.00
76238;PMS7003;65043;48.392;-4.472;2023-11-19T10:32:12;10.50;5.00;1.00
76238;PMS7003;65043;48.392;-4.472;2023-11-19T10:34:40;11.75;6.75;3.00
76238;PMS7003;65043;48.392;-4.472;2023-11-19T10:37:06;10.75;4.00;2.00
76238;PMS7003;65043;48.392;-4.472;2023-11-19T10:42:19;10.75;7.00;2.25
76238;PMS7003;65043;48.392;-4.472;2023-11-19T10:44:45;10.75;7.00;2.00
76238;PMS7003;65043;48.392;-4.472;2023-11-19T10:47:11;5.75;4.50;1.00
76238;PMS7003;65043;48.392;-4.472;2023-11-19T10:49:39;12.25;4.00;1.00
76238;PMS7003;65043;48.392;-4.472;2023-11-19T10:52:14;54.75;40.75;22.00
76238;PMS7003;65043;48.392;-4.472;2023-11-19T10:54:44;41.25;32.50;19.00
76238;PMS7003;65043;48.392;-4.472;2023-11-19T10:57:17;39.00;31.25;18.75
76238;PMS7003;65043;48.392;-4.472;2023-11-19T10:59:55;72.50;58.00;33.25
76238;PMS7003;65043;48.392;-4.472;2023-11-19T11:02:26;14.25;8.50;4.00
76238;PMS7003;65043;48.392;-4.472;2023-11-19T11:04:56;8.00;6.50;4.00
76238;PMS7003;65043;48.392;-4.472;2023-11-19T11:07:23;10.50;8.75;4.00
76238;PMS7003;65043;48.392;-4.472;2023-11-19T11:09:51;11.25;6.75;2.75
76238;PMS7003;65043;48.392;-4.472;2023-11-19T11:12:17;8.50;3.25;1.25
76238;PMS7003;65043;48.392;-4.472;2023-11-19T11:14:46;8.50;6.75;3.50
76238;PMS7003;65043;48.392;-4.472;2023-11-19T11:17:13;8.75;4.75;2.00
76238;PMS7003;65043;48.392;-4.472;2023-11-19T11:19:42;11.50;6.75;3.00
76238;PMS7003;65043;48.392;-4.472;2023-11-19T11:22:08;9.25;6.75;2.75
76238;PMS7003;65043;48.392;-4.472;2023-11-19T11:24:53;7.75;4.00;2.00
76238;PMS7003;65043;48.392;-4.472;2023-11-19T11:27:59;7.50;4.75;2.00
76238;PMS7003;65043;48.392;-4.472;2023-11-19T11:33:32;9.75;6.00;2.50
76238;PMS7003;65043;48.392;-4.472;2023-11-19T11:39:20;10.75;6.25;2.50
76238;PMS7003;65043;48.392;-4.472;2023-11-19T11:41:47;7.25;5.75;3.00
76238;PMS7003;65043;48.392;-4.472;2023-11-19T11:47:23;8.75;6.00;2.00
76238;PMS7003;65043;48.392;-4.472;2023-11-19T11:49:48;10.00;6.75;3.75
76238;PMS7003;65043;48.392;-4.472;2023-11-19T11:52:16;7.75;6.25;3.00
76238;PMS7003;65043;48.392;-4.472;2023-11-19T11:54:42;10.75;6.00;3.00
76238;PMS7003;65043;48.392;-4.472;2023-11-19T11:57:12;7.75;6.00;3.00
76238;PMS7003;65043;48.392;-4.472;2023-11-19T12:02:10;10.50;6.00;2.75
76238;PMS7003;65043;48.392;-4.472;2023-11-19T12:04:38;7.75;6.50;3.25
76238;PMS7003;65043;48.392;-4.472;2023-11-19T12:07:05;5.00;5.00;2.75
76238;PMS7003;65043;48.392;-4.472;2023-11-19T12:09:32;10.25;6.75;2.00
76238;PMS7003;65043;48.392;-4.472;2023-11-19T12:12:11;9.75;5.00;3.00
76238;PMS7003;65043;48.392;-4.472;2023-11-19T12:20:01;52.50;39.25;24.00
76238;PMS7003;65043;48.392;-4.472;2023-11-19T12:22:30;45.50;34.75;20.00
76238;PMS7003;65043;48.392;-4.472;2023-11-19T12:24:56;22.75;15.75;9.25
76238;PMS7003;65043;48.392;-4.472;2023-11-19T12:27:22;18.00;13.25;7.50
76238;PMS7003;65043;48.392;-4.472;2023-11-19T12:29:48;7.50;5.25;3.00
76238;PMS7003;65043;48.392;-4.472;2023-11-19T12:32:14;11.50;7.00;2.75
76238;PMS7003;65043;48.392;-4.472;2023-11-19T12:34:39;12.25;6.00;1.50
76238;PMS7003;65043;48.392;-4.472;2023-11-19T12:37:05;8.25;4.50;1.75
76238;PMS7003;65043;48.392;-4.472;2023-11-19T12:39:31;9.00;4.75;1.50
76238;PMS7003;65043;48.392;-4.472;2023-11-19T12:41:57;11.50;4.50;2.00
76238;PMS7003;65043;48.392;-4.472;2023-11-19T12:44:24;14.50;7.25;2.00
76238;PMS7003;65043;48.392;-4.472;2023-11-19T12:49:28;7.50;5.25;1.50
76238;PMS7003;65043;48.392;-4.472;2023-11-19T12:51:53;13.25;6.00;1.75
76238;PMS7003;65043;48.392;-4.472;2023-11-19T12:54:19;7.50;5.00;1.00
76238;PMS7003;65043;48.392;-4.472;2023-11-19T12:56:54;13.50;7.50;2.00
76238;PMS7003;65043;48.392;-4.472;2023-11-19T12:59:19;6.25;4.00;1.50
76238;PMS7003;65043;48.392;-4.472;2023-11-19T13:01:54;10.75;4.75;2.00
76238;PMS7003;65043;48.392;-4.472;2023-11-19T13:04:21;7.75;5.00;1.50
76238;PMS7003;65043;48.392;-4.472;2023-11-19T13:06:46;5.75;3.25;1.50
76238;PMS7003;65043;48.392;-4.472;2023-11-19T13:09:22;9.00;5.75;2.00
76238;PMS7003;65043;48.392;-4.472;2023-11-19T13:11:49;9.25;4.75;2.00
76238;PMS7003;65043;48.392;-4.472;2023-11-19T13:14:15;9.75;4.75;1.75
76238;PMS7003;65043;48.392;-4.472;2023-11-19T13:16:41;6.00;6.00;2.00
76238;PMS7003;65043;48.392;-4.472;2023-11-19T13:19:08;5.75;2.00;1.00
76238;PMS7003;65043;48.392;-4.472;2023-11-19T13:21:36;12.50;7.00;3.75
76238;PMS7003;65043;48.392;-4.472;2023-11-19T13:24:07;8.00;4.00;2.00
76238;PMS7003;65043;48.392;-4.472;2023-11-19T13:26:33;9.00;4.50;2.00
76238;PMS7003;65043;48.392;-4.472;2023-11-19T13:29:00;7.75;4.00;2.00
76238;PMS7003;65043;48.392;-4.472;2023-11-19T13:31:26;11.00;5.50;1.50
76238;PMS7003;65043;48.392;-4.472;2023-11-19T13:33:51;9.75;6.50;3.00
76238;PMS7003;65043;48.392;-4.472;2023-11-19T13:36:17;13.50;6.50;3.00
76238;PMS7003;65043;48.392;-4.472;2023-11-19T13:38:45;9.50;6.25;2.25
76238;PMS7003;65043;48.392;-4.472;2023-11-19T13:41:11;11.00;7.00;2.50
76238;PMS7003;65043;48.392;-4.472;2023-11-19T13:43:38;8.25;6.75;2.00
76238;PMS7003;65043;48.392;-4.472;2023-11-19T13:46:04;8.00;5.75;2.00
76238;PMS7003;65043;48.392;-4.472;2023-11-19T13:48:30;9.50;5.00;2.00
76238;PMS7003;65043;48.392;-4.472;2023-11-19T13:50:56;9.50;5.25;2.75
76238;PMS7003;65043;48.392;-4.472;2023-11-19T13:53:22;8.25;8.00;3.00
76238;PMS7003;65043;48.392;-4.472;2023-11-19T13:55:48;12.25;7.50;3.00
76238;PMS7003;65043;48.392;-4.472;2023-11-19T13:58:14;9.25;6.75;3.00
76238;PMS7003;65043;48.392;-4.472;2023-11-19T14:00:40;8.00;4.75;1.75
76238;PMS7003;65043;48.392;-4.472;2023-11-19T14:03:07;9.25;5.00;2.75
76238;PMS7003;65043;48.392;-4.472;2023-11-19T14:05:33;8.00;5.00;1.25
76238;PMS7003;65043;48.392;-4.472;2023-11-19T14:07:58;8.00;5.00;2.00
76238;PMS7003;65043;48.392;-4.472;2023-11-19T14:10:24;11.75;5.75;2.00
76238;PMS7003;65043;48.392;-4.472;2023-11-19T14:12:49;50.25;41.50;23.75
76238;PMS7003;65043;48.392;-4.472;2023-11-19T14:15:15;68.75;54.50;27.25
76238;PMS7003;65043;48.392;-4.472;2023-11-19T14:17:42;22.75;18.25;11.00
76238;PMS7003;65043;48.392;-4.472;2023-11-19T14:20:08;59.00;43.75;27.75
76238;PMS7003;65043;48.392;-4.472;2023-11-19T14:22:40;31.00;24.50;15.25
76238;PMS7003;65043;48.392;-4.472;2023-11-19T14:25:07;10.25;8.25;5.00
76238;PMS7003;65043;48.392;-4.472;2023-11-19T14:27:35;14.75;9.00;3.00
76238;PMS7003;65043;48.392;-4.472;2023-11-19T14:30:03;9.00;2.50;1.00